sensor_id;sensor_type;location;lat;lon;timestamp;P1;durP1;ratioP1;P2;durP2;ratioP2
74217;SDS011;62579;47.288;18.646;2023-02-18T00:00:24;0.00;;;0.00;;
74217;SDS011;62579;47.288;18.646;2023-02-18T00:02:51;0.10;;;0.10;;
74217;SDS011;62579;47.288;18.646;2023-02-18T00:05:16;0.10;;;0.10;;
74217;SDS011;62579;47.288;18.646;2023-02-18T00:07:41;0.10;;;0.10;;
74217;SDS011;62579;47.288;18.646;2023-02-18T00:10:09;0.37;;;0.37;;
74217;SDS011;62579;47.288;18.646;2023-02-18T00:12:36;4.00;;;1.60;;
74217;SDS011;62579;47.288;18.646;2023-02-18T00:15:02;0.53;;;0.30;;
74217;SDS011;62579;47.288;18.646;2023-02-18T00:17:28;0.73;;;0.70;;
74217;SDS011;62579;47.288;18.646;2023-02-18T00:32:07;0.10;;;0.10;;
74217;SDS011;62579;47.288;18.646;2023-02-18T00:34:33;0.13;;;0.13;;
74217;SDS011;62579;47.288;18.646;2023-02-18T00:36:58;0.13;;;0.13;;
74217;SDS011;62579;47.288;18.646;2023-02-18T00:39:23;0.20;;;0.20;;
74217;SDS011;62579;47.288;18.646;2023-02-18T00:41:49;0.57;;;0.57;;
74217;SDS011;62579;47.288;18.646;2023-02-18T00:44:14;0.20;;;0.20;;
74217;SDS011;62579;47.288;18.646;2023-02-18T00:46:39;0.00;;;0.00;;
74217;SDS011;62579;47.288;18.646;2023-02-18T00:49:05;0.00;;;0.00;;
74217;SDS011;62579;47.288;18.646;2023-02-18T00:51:31;4.33;;;0.77;;
74217;SDS011;62579;47.288;18.646;2023-02-18T00:53:57;0.77;;;0.77;;
74217;SDS011;62579;47.288;18.646;2023-02-18T00:56:23;0.97;;;0.97;;
74217;SDS011;62579;47.288;18.646;2023-02-18T00:58:48;0.10;;;0.10;;
74217;SDS011;62579;47.288;18.646;2023-02-18T01:01:14;0.20;;;0.20;;
74217;SDS011;62579;47.288;18.646;2023-02-18T01:03:40;3.50;;;0.60;;
74217;SDS011;62579;47.288;18.646;2023-02-18T01:06:07;0.20;;;0.20;;
74217;SDS011;62579;47.288;18.646;2023-02-18T01:08:34;0.10;;;0.10;;
74217;SDS011;62579;47.288;18.646;2023-02-18T01:11:00;0.57;;;0.57;;
74217;SDS011;62579;47.288;18.646;2023-02-18T01:13:26;0.00;;;0.00;;
74217;SDS011;62579;47.288;18.646;2023-02-18T01:15:52;0.23;;;0.23;;
74217;SDS011;62579;47.288;18.646;2023-02-18T01:18:17;0.47;;;0.47;;
74217;SDS011;62579;47.288;18.646;2023-02-18T01:20:43;0.10;;;0.10;;
74217;SDS011;62579;47.288;18.646;2023-02-18T01:23:09;0.10;;;0.10;;
74217;SDS011;62579;47.288;18.646;2023-02-18T01:25:35;0.10;;;0.10;;
74217;SDS011;62579;47.288;18.646;2023-02-18T01:28:02;0.10;;;0.10;;
74217;SDS011;62579;47.288;18.646;2023-02-18T01:30:28;0.00;;;0.00;;
74217;SDS011;62579;47.288;18.646;2023-02-18T01:32:54;0.00;;;0.00;;
74217;SDS011;62579;47.288;18.646;2023-02-18T01:35:21;0.03;;;0.03;;
74217;SDS011;62579;47.288;18.646;2023-02-18T01:37:46;0.20;;;0.20;;
74217;SDS011;62579;47.288;18.646;2023-02-18T01:40:13;0.17;;;0.17;;
74217;SDS011;62579;47.288;18.646;2023-02-18T01:42:40;0.13;;;0.13;;
74217;SDS011;62579;47.288;18.646;2023-02-18T01:48:07;0.17;;;0.17;;
74217;SDS011;62579;47.288;18.646;2023-02-18T01:50:43;0.37;;;0.37;;
74217;SDS011;62579;47.288;18.646;2023-02-18T01:53:13;0.30;;;0.30;;
74217;SDS011;62579;47.288;18.646;2023-02-18T01:55:40;0.10;;;0.10;;
74217;SDS011;62579;47.288;18.646;2023-02-18T01:58:06;0.00;;;0.00;;
74217;SDS011;62579;47.288;18.646;2023-02-18T02:00:32;0.07;;;0.07;;
74217;SDS011;62579;47.288;18.646;2023-02-18T02:02:58;0.23;;;0.23;;
74217;SDS011;62579;47.288;18.646;2023-02-18T02:05:23;0.00;;;0.00;;
74217;SDS011;62579;47.288;18.646;2023-02-18T02:07:49;0.30;;;0.30;;
74217;SDS011;62579;47.288;18.646;2023-02-18T02:10:18;0.00;;;0.00;;
74217;SDS011;62579;47.288;18.646;2023-02-18T02:13:06;0.00;;;0.00;;
74217;SDS011;62579;47.288;18.646;2023-02-18T02:21:11;0.20;;;0.20;;
74217;SDS011;62579;47.288;18.646;2023-02-18T02:35:09;0.37;;;0.37;;
74217;SDS011;62579;47.288;18.646;2023-02-18T02:37:58;0.00;;;0.00;;
74217;SDS011;62579;47.288;18.646;2023-02-18T02:40:31;0.10;;;0.10;;
74217;SDS011;62579;47.288;18.646;2023-02-18T02:51:08;0.10;;;0.10;;
74217;SDS011;62579;47.288;18.646;2023-02-18T02:53:38;0.20;;;0.20;;
74217;SDS011;62579;47.288;18.646;2023-02-18T02:56:05;0.10;;;0.10;;
74217;SDS011;62579;47.288;18.646;2023-02-18T02:58:31;0.57;;;0.57;;
74217;SDS011;62579;47.288;18.646;2023-02-18T03:06:48;0.00;;;0.00;;
74217;SDS011;62579;47.288;18.646;2023-02-18T03:11:53;0.10;;;0.10;;
74217;SDS011;62579;47.288;18.646;2023-02-18T03:14:28;0.63;;;0.63;;
74217;SDS011;62579;47.288;18.646;2023-02-18T03:17:00;0.17;;;0.17;;
74217;SDS011;62579;47.288;18.646;2023-02-18T03:22:10;0.00;;;0.00;;
74217;SDS011;62579;47.288;18.646;2023-02-18T03:24:49;0.40;;;0.40;;
74217;SDS011;62579;47.288;18.646;2023-02-18T03:27:30;0.00;;;0.00;;
74217;SDS011;62579;47.288;18.646;2023-02-18T03:30:04;0.00;;;0.00;;
74217;SDS011;62579;47.288;18.646;2023-02-18T03:32:34;0.10;;;0.10;;
74217;SDS011;62579;47.288;18.646;2023-02-18T03:35:06;0.07;;;0.07;;
74217;SDS011;62579;47.288;18.646;2023-02-18T03:37:36;0.13;;;0.13;;
74217;SDS011;62579;47.288;18.646;2023-02-18T03:40:07;0.00;;;0.00;;
74217;SDS011;62579;47.288;18.646;2023-02-18T03:42:34;0.00;;;0.00;;
74217;SDS011;62579;47.288;18.646;2023-02-18T03:44:59;0.20;;;0.20;;
74217;SDS011;62579;47.288;18.646;2023-02-18T03:47:25;0.10;;;0.10;;
74217;SDS011;62579;47.288;18.646;2023-02-18T03:49:51;0.00;;;0.00;;
74217;SDS011;62579;47.288;18.646;2023-02-18T03:52:16;0.10;;;0.10;;
74217;SDS011;62579;47.288;18.646;2023-02-18T03:54:41;1.60;;;0.40;;
74217;SDS011;62579;47.288;18.646;2023-02-18T03:57:07;0.10;;;0.10;;
74217;SDS011;62579;47.288;18.646;2023-02-18T03:59:33;0.13;;;0.13;;
74217;SDS011;62579;47.288;18.646;2023-02-18T04:01:58;0.00;;;0.00;;
74217;SDS011;62579;47.288;18.646;2023-02-18T04:04:24;0.10;;;0.10;;
74217;SDS011;62579;47.288;18.646;2023-02-18T04:06:50;0.20;;;0.20;;
74217;SDS011;62579;47.288;18.646;2023-02-18T04:09:15;0.00;;;0.00;;
74217;SDS011;62579;47.288;18.646;2023-02-18T04:11:41;0.00;;;0.00;;
74217;SDS011;62579;47.288;18.646;2023-02-18T04:14:06;0.20;;;0.20;;
74217;SDS011;62579;47.288;18.646;2023-02-18T04:16:32;0.30;;;0.30;;
74217;SDS011;62579;47.288;18.646;2023-02-18T04:18:57;0.00;;;0.00;;
74217;SDS011;62579;47.288;18.646;2023-02-18T04:21:23;0.00;;;0.00;;
74217;SDS011;62579;47.288;18.646;2023-02-18T04:23:48;0.40;;;0.40;;
74217;SDS011;62579;47.288;18.646;2023-02-18T04:26:13;0.00;;;0.00;;
74217;SDS011;62579;47.288;18.646;2023-02-18T04:28:39;0.20;;;0.20;;
74217;SDS011;62579;47.288;18.646;2023-02-18T04:31:04;0.00;;;0.00;;
74217;SDS011;62579;47.288;18.646;2023-02-18T04:33:30;0.00;;;0.00;;
74217;SDS011;62579;47.288;18.646;2023-02-18T04:35:55;0.00;;;0.00;;
74217;SDS011;62579;47.288;18.646;2023-02-18T04:38:20;0.00;;;0.00;;
74217;SDS011;62579;47.288;18.646;2023-02-18T04:40:46;0.00;;;0.00;;
74217;SDS011;62579;47.288;18.646;2023-02-18T04:43:11;0.30;;;0.20;;
74217;SDS011;62579;47.288;18.646;2023-02-18T04:45:37;0.00;;;0.00;;
74217;SDS011;62579;47.288;18.646;2023-02-18T04:48:02;0.03;;;0.03;;
74217;SDS011;62579;47.288;18.646;2023-02-18T04:50:28;0.00;;;0.00;;
74217;SDS011;62579;47.288;18.646;2023-02-18T04:52:53;0.00;;;0.00;;
74217;SDS011;62579;47.288;18.646;2023-02-18T04:55:18;0.00;;;0.00;;
74217;SDS011;62579;47.288;18.646;2023-02-18T04:57:44;0.00;;;0.00;;
74217;SDS011;62579;47.288;18.646;2023-02-18T05:00:09;0.00;;;0.00;;
74217;SDS011;62579;47.288;18.646;2023-02-18T05:02:42;1.57;;;1.50;;
74217;SDS011;62579;47.288;18.646;2023-02-18T05:05:08;0.20;;;0.20;;
74217;SDS011;62579;47.288;18.646;2023-02-18T05:07:34;0.10;;;0.10;;
74217;SDS011;62579;47.288;18.646;2023-02-18T05:09:59;0.20;;;0.20;;
74217;SDS011;62579;47.288;18.646;2023-02-18T05:12:25;0.00;;;0.00;;
74217;SDS011;62579;47.288;18.646;2023-02-18T05:14:50;0.30;;;0.30;;
74217;SDS011;62579;47.288;18.646;2023-02-18T05:17:16;0.00;;;0.00;;
74217;SDS011;62579;47.288;18.646;2023-02-18T05:19:41;0.00;;;0.00;;
74217;SDS011;62579;47.288;18.646;2023-02-18T05:22:06;0.10;;;0.10;;
74217;SDS011;62579;47.288;18.646;2023-02-18T05:24:32;0.00;;;0.00;;
74217;SDS011;62579;47.288;18.646;2023-02-18T05:26:58;0.00;;;0.00;;
74217;SDS011;62579;47.288;18.646;2023-02-18T05:29:23;0.37;;;0.37;;
74217;SDS011;62579;47.288;18.646;2023-02-18T05:31:48;0.00;;;0.00;;
74217;SDS011;62579;47.288;18.646;2023-02-18T05:34:14;0.30;;;0.30;;
74217;SDS011;62579;47.288;18.646;2023-02-18T05:36:39;0.00;;;0.00;;
74217;SDS011;62579;47.288;18.646;2023-02-18T05:39:04;0.00;;;0.00;;
74217;SDS011;62579;47.288;18.646;2023-02-18T05:41:30;0.10;;;0.10;;
74217;SDS011;62579;47.288;18.646;2023-02-18T05:43:55;0.37;;;0.37;;
74217;SDS011;62579;47.288;18.646;2023-02-18T05:46:39;0.73;;;0.73;;
74217;SDS011;62579;47.288;18.646;2023-02-18T05:49:05;0.00;;;0.00;;
74217;SDS011;62579;47.288;18.646;2023-02-18T05:51:30;0.00;;;0.00;;
74217;SDS011;62579;47.288;18.646;2023-02-18T05:53:55;0.00;;;0.00;;
74217;SDS011;62579;47.288;18.646;2023-02-18T05:56:21;0.77;;;0.23;;
74217;SDS011;62579;47.288;18.646;2023-02-18T05:58:47;0.10;;;0.10;;
74217;SDS011;62579;47.288;18.646;2023-02-18T06:01:12;0.00;;;0.00;;
74217;SDS011;62579;47.288;18.646;2023-02-18T06:03:37;0.30;;;0.30;;
74217;SDS011;62579;47.288;18.646;2023-02-18T06:06:03;0.00;;;0.00;;
74217;SDS011;62579;47.288;18.646;2023-02-18T06:08:29;0.20;;;0.20;;
74217;SDS011;62579;47.288;18.646;2023-02-18T06:10:54;0.20;;;0.20;;
74217;SDS011;62579;47.288;18.646;2023-02-18T06:13:19;0.10;;;0.10;;
74217;SDS011;62579;47.288;18.646;2023-02-18T06:15:45;0.00;;;0.00;;
74217;SDS011;62579;47.288;18.646;2023-02-18T06:18:10;0.10;;;0.10;;
74217;SDS011;62579;47.288;18.646;2023-02-18T06:20:37;0.23;;;0.23;;
74217;SDS011;62579;47.288;18.646;2023-02-18T06:23:03;0.60;;;0.40;;
74217;SDS011;62579;47.288;18.646;2023-02-18T06:25:28;1.30;;;0.67;;
74217;SDS011;62579;47.288;18.646;2023-02-18T06:27:54;0.30;;;0.30;;
74217;SDS011;62579;47.288;18.646;2023-02-18T06:30:19;0.30;;;0.30;;
74217;SDS011;62579;47.288;18.646;2023-02-18T06:32:45;0.10;;;0.10;;
74217;SDS011;62579;47.288;18.646;2023-02-18T06:35:10;0.33;;;0.33;;
74217;SDS011;62579;47.288;18.646;2023-02-18T06:37:35;0.10;;;0.10;;
74217;SDS011;62579;47.288;18.646;2023-02-18T06:40:01;0.20;;;0.20;;
74217;SDS011;62579;47.288;18.646;2023-02-18T06:42:26;0.10;;;0.10;;
74217;SDS011;62579;47.288;18.646;2023-02-18T06:44:51;0.00;;;0.00;;
74217;SDS011;62579;47.288;18.646;2023-02-18T06:47:17;0.00;;;0.00;;
74217;SDS011;62579;47.288;18.646;2023-02-18T06:49:42;0.20;;;0.20;;
74217;SDS011;62579;47.288;18.646;2023-02-18T06:52:08;0.10;;;0.10;;
74217;SDS011;62579;47.288;18.646;2023-02-18T06:54:33;0.00;;;0.00;;
74217;SDS011;62579;47.288;18.646;2023-02-18T06:56:58;0.10;;;0.10;;
74217;SDS011;62579;47.288;18.646;2023-02-18T06:59:24;0.00;;;0.00;;
74217;SDS011;62579;47.288;18.646;2023-02-18T07:01:49;0.10;;;0.10;;
74217;SDS011;62579;47.288;18.646;2023-02-18T07:04:15;0.00;;;0.00;;
74217;SDS011;62579;47.288;18.646;2023-02-18T07:06:40;0.00;;;0.00;;
74217;SDS011;62579;47.288;18.646;2023-02-18T07:09:06;0.00;;;0.00;;
74217;SDS011;62579;47.288;18.646;2023-02-18T07:11:31;0.00;;;0.00;;
74217;SDS011;62579;47.288;18.646;2023-02-18T07:13:57;0.00;;;0.00;;
74217;SDS011;62579;47.288;18.646;2023-02-18T07:16:22;0.00;;;0.00;;
74217;SDS011;62579;47.288;18.646;2023-02-18T07:18:47;0.03;;;0.03;;
74217;SDS011;62579;47.288;18.646;2023-02-18T07:21:13;0.10;;;0.10;;
74217;SDS011;62579;47.288;18.646;2023-02-18T07:23:38;0.00;;;0.00;;
74217;SDS011;62579;47.288;18.646;2023-02-18T07:26:10;0.00;;;0.00;;
74217;SDS011;62579;47.288;18.646;2023-02-18T07:28:37;0.00;;;0.00;;
74217;SDS011;62579;47.288;18.646;2023-02-18T07:31:03;0.10;;;0.10;;
74217;SDS011;62579;47.288;18.646;2023-02-18T07:33:29;0.00;;;0.00;;
74217;SDS011;62579;47.288;18.646;2023-02-18T07:35:56;0.00;;;0.00;;
74217;SDS011;62579;47.288;18.646;2023-02-18T07:38:23;0.00;;;0.00;;
74217;SDS011;62579;47.288;18.646;2023-02-18T07:40:50;0.00;;;0.00;;
74217;SDS011;62579;47.288;18.646;2023-02-18T07:43:16;0.73;;;0.60;;
74217;SDS011;62579;47.288;18.646;2023-02-18T07:45:42;1.80;;;0.20;;
74217;SDS011;62579;47.288;18.646;2023-02-18T07:48:07;0.20;;;0.20;;
74217;SDS011;62579;47.288;18.646;2023-02-18T07:50:33;0.00;;;0.00;;
74217;SDS011;62579;47.288;18.646;2023-02-18T07:53:01;0.10;;;0.10;;
74217;SDS011;62579;47.288;18.646;2023-02-18T07:55:28;0.00;;;0.00;;
74217;SDS011;62579;47.288;18.646;2023-02-18T07:58:12;0.00;;;0.00;;
74217;SDS011;62579;47.288;18.646;2023-02-18T08:00:37;0.00;;;0.00;;
74217;SDS011;62579;47.288;18.646;2023-02-18T08:03:02;0.00;;;0.00;;
74217;SDS011;62579;47.288;18.646;2023-02-18T08:05:28;0.00;;;0.00;;
74217;SDS011;62579;47.288;18.646;2023-02-18T08:07:53;0.00;;;0.00;;
74217;SDS011;62579;47.288;18.646;2023-02-18T08:10:19;0.23;;;0.23;;
74217;SDS011;62579;47.288;18.646;2023-02-18T08:12:44;0.10;;;0.10;;
74217;SDS011;62579;47.288;18.646;2023-02-18T08:15:10;0.00;;;0.00;;
74217;SDS011;62579;47.288;18.646;2023-02-18T08:17:38;0.10;;;0.10;;
74217;SDS011;62579;47.288;18.646;2023-02-18T08:20:04;0.10;;;0.10;;
74217;SDS011;62579;47.288;18.646;2023-02-18T08:22:30;0.20;;;0.20;;
74217;SDS011;62579;47.288;18.646;2023-02-18T08:24:55;0.10;;;0.10;;
74217;SDS011;62579;47.288;18.646;2023-02-18T08:27:21;0.00;;;0.00;;
74217;SDS011;62579;47.288;18.646;2023-02-18T08:29:47;0.00;;;0.00;;
74217;SDS011;62579;47.288;18.646;2023-02-18T08:32:12;0.00;;;0.00;;
74217;SDS011;62579;47.288;18.646;2023-02-18T08:34:38;0.00;;;0.00;;
74217;SDS011;62579;47.288;18.646;2023-02-18T08:37:03;0.00;;;0.00;;
74217;SDS011;62579;47.288;18.646;2023-02-18T08:39:35;0.10;;;0.10;;
74217;SDS011;62579;47.288;18.646;2023-02-18T08:42:02;0.63;;;0.63;;
74217;SDS011;62579;47.288;18.646;2023-02-18T08:44:28;0.50;;;0.50;;
74217;SDS011;62579;47.288;18.646;2023-02-18T08:46:53;0.10;;;0.10;;
74217;SDS011;62579;47.288;18.646;2023-02-18T08:49:19;0.10;;;0.10;;
74217;SDS011;62579;47.288;18.646;2023-02-18T08:51:45;0.27;;;0.27;;
74217;SDS011;62579;47.288;18.646;2023-02-18T08:54:11;0.07;;;0.07;;
74217;SDS011;62579;47.288;18.646;2023-02-18T08:56:37;0.30;;;0.30;;
74217;SDS011;62579;47.288;18.646;2023-02-18T08:59:03;0.10;;;0.10;;
74217;SDS011;62579;47.288;18.646;2023-02-18T09:01:29;0.13;;;0.13;;
74217;SDS011;62579;47.288;18.646;2023-02-18T09:03:54;0.00;;;0.00;;
74217;SDS011;62579;47.288;18.646;2023-02-18T09:06:20;0.17;;;0.17;;
74217;SDS011;62579;47.288;18.646;2023-02-18T09:08:45;0.00;;;0.00;;
74217;SDS011;62579;47.288;18.646;2023-02-18T09:11:10;0.10;;;0.10;;
74217;SDS011;62579;47.288;18.646;2023-02-18T09:13:36;0.00;;;0.00;;
74217;SDS011;62579;47.288;18.646;2023-02-18T09:16:06;0.00;;;0.00;;
74217;SDS011;62579;47.288;18.646;2023-02-18T09:18:33;1.50;;;0.70;;
74217;SDS011;62579;47.288;18.646;2023-02-18T09:21:02;2.67;;;2.20;;
74217;SDS011;62579;47.288;18.646;2023-02-18T09:23:30;0.10;;;0.10;;
74217;SDS011;62579;47.288;18.646;2023-02-18T09:25:57;0.00;;;0.00;;
74217;SDS011;62579;47.288;18.646;2023-02-18T09:28:23;0.00;;;0.00;;
74217;SDS011;62579;47.288;18.646;2023-02-18T09:30:49;0.00;;;0.00;;
74217;SDS011;62579;47.288;18.646;2023-02-18T09:33:15;0.00;;;0.00;;
74217;SDS011;62579;47.288;18.646;2023-02-18T09:35:41;0.00;;;0.00;;
74217;SDS011;62579;47.288;18.646;2023-02-18T09:38:09;0.10;;;0.10;;
74217;SDS011;62579;47.288;18.646;2023-02-18T09:40:37;0.10;;;0.10;;
74217;SDS011;62579;47.288;18.646;2023-02-18T09:43:08;0.00;;;0.00;;
74217;SDS011;62579;47.288;18.646;2023-02-18T09:45:57;0.00;;;0.00;;
74217;SDS011;62579;47.288;18.646;2023-02-18T09:48:28;0.08;;;0.08;;
74217;SDS011;62579;47.288;18.646;2023-02-18T09:50:56;0.30;;;0.30;;
74217;SDS011;62579;47.288;18.646;2023-02-18T09:53:23;0.10;;;0.10;;
74217;SDS011;62579;47.288;18.646;2023-02-18T09:55:49;0.33;;;0.33;;
74217;SDS011;62579;47.288;18.646;2023-02-18T09:58:18;0.10;;;0.10;;
74217;SDS011;62579;47.288;18.646;2023-02-18T10:00:48;0.00;;;0.00;;
74217;SDS011;62579;47.288;18.646;2023-02-18T10:03:18;0.00;;;0.00;;
74217;SDS011;62579;47.288;18.646;2023-02-18T10:05:49;0.00;;;0.00;;
74217;SDS011;62579;47.288;18.646;2023-02-18T10:08:28;0.20;;;0.20;;
74217;SDS011;62579;47.288;18.646;2023-02-18T10:11:00;0.10;;;0.10;;
74217;SDS011;62579;47.288;18.646;2023-02-18T10:13:30;0.00;;;0.00;;
74217;SDS011;62579;47.288;18.646;2023-02-18T10:15:58;0.00;;;0.00;;
74217;SDS011;62579;47.288;18.646;2023-02-18T10:18:28;0.10;;;0.10;;
74217;SDS011;62579;47.288;18.646;2023-02-18T10:21:41;0.00;;;0.00;;
74217;SDS011;62579;47.288;18.646;2023-02-18T10:24:02;0.00;;;0.00;;
74217;SDS011;62579;47.288;18.646;2023-02-18T10:26:29;0.00;;;0.00;;
74217;SDS011;62579;47.288;18.646;2023-02-18T10:28:57;0.00;;;0.00;;
74217;SDS011;62579;47.288;18.646;2023-02-18T10:31:31;0.00;;;0.00;;
74217;SDS011;62579;47.288;18.646;2023-02-18T10:34:11;0.00;;;0.00;;
74217;SDS011;62579;47.288;18.646;2023-02-18T10:36:54;0.00;;;0.00;;
74217;SDS011;62579;47.288;18.646;2023-02-18T10:39:43;0.00;;;0.00;;
74217;SDS011;62579;47.288;18.646;2023-02-18T10:42:34;0.00;;;0.00;;
74217;SDS011;62579;47.288;18.646;2023-02-18T10:50:37;0.00;;;0.00;;
74217;SDS011;62579;47.288;18.646;2023-02-18T10:53:10;0.00;;;0.00;;
74217;SDS011;62579;47.288;18.646;2023-02-18T10:55:38;0.00;;;0.00;;
74217;SDS011;62579;47.288;18.646;2023-02-18T11:01:11;0.00;;;0.00;;
74217;SDS011;62579;47.288;18.646;2023-02-18T11:03:44;0.00;;;0.00;;
74217;SDS011;62579;47.288;18.646;2023-02-18T11:06:15;0.00;;;0.00;;
74217;SDS011;62579;47.288;18.646;2023-02-18T11:08:45;0.00;;;0.00;;
74217;SDS011;62579;47.288;18.646;2023-02-18T11:11:55;0.00;;;0.00;;
74217;SDS011;62579;47.288;18.646;2023-02-18T11:14:03;0.10;;;0.10;;
74217;SDS011;62579;47.288;18.646;2023-02-18T11:19:02;0.00;;;0.00;;
74217;SDS011;62579;47.288;18.646;2023-02-18T11:21:36;0.00;;;0.00;;
74217;SDS011;62579;47.288;18.646;2023-02-18T11:24:09;0.00;;;0.00;;
74217;SDS011;62579;47.288;18.646;2023-02-18T11:26:40;0.00;;;0.00;;
74217;SDS011;62579;47.288;18.646;2023-02-18T11:29:18;1.17;;;0.53;;
74217;SDS011;62579;47.288;18.646;2023-02-18T11:31:51;0.00;;;0.00;;
74217;SDS011;62579;47.288;18.646;2023-02-18T11:34:20;0.00;;;0.00;;
74217;SDS011;62579;47.288;18.646;2023-02-18T11:36:47;0.00;;;0.00;;
74217;SDS011;62579;47.288;18.646;2023-02-18T11:39:21;0.10;;;0.10;;
74217;SDS011;62579;47.288;18.646;2023-02-18T11:44:27;0.00;;;0.00;;
74217;SDS011;62579;47.288;18.646;2023-02-18T11:46:57;0.00;;;0.00;;
74217;SDS011;62579;47.288;18.646;2023-02-18T11:49:25;0.00;;;0.00;;
74217;SDS011;62579;47.288;18.646;2023-02-18T11:51:51;0.00;;;0.00;;
74217;SDS011;62579;47.288;18.646;2023-02-18T11:54:26;0.00;;;0.00;;
74217;SDS011;62579;47.288;18.646;2023-02-18T11:59:25;0.00;;;0.00;;
74217;SDS011;62579;47.288;18.646;2023-02-18T12:01:55;0.03;;;0.00;;
74217;SDS011;62579;47.288;18.646;2023-02-18T12:04:32;0.62;;;0.28;;
74217;SDS011;62579;47.288;18.646;2023-02-18T12:07:25;0.10;;;0.10;;
74217;SDS011;62579;47.288;18.646;2023-02-18T12:09:58;0.10;;;0.10;;
74217;SDS011;62579;47.288;18.646;2023-02-18T12:12:31;0.00;;;0.00;;
74217;SDS011;62579;47.288;18.646;2023-02-18T12:15:04;0.00;;;0.00;;
74217;SDS011;62579;47.288;18.646;2023-02-18T12:17:44;0.20;;;0.20;;
74217;SDS011;62579;47.288;18.646;2023-02-18T12:28:32;0.07;;;0.07;;
74217;SDS011;62579;47.288;18.646;2023-02-18T12:45:03;6.62;;;1.35;;
74217;SDS011;62579;47.288;18.646;2023-02-18T13:15:07;0.20;;;0.20;;
74217;SDS011;62579;47.288;18.646;2023-02-18T13:17:37;1.30;;;0.43;;
74217;SDS011;62579;47.288;18.646;2023-02-18T13:22:50;4.60;;;2.27;;
74217;SDS011;62579;47.288;18.646;2023-02-18T13:25:17;0.50;;;0.50;;
74217;SDS011;62579;47.288;18.646;2023-02-18T13:33:18;0.87;;;0.53;;
74217;SDS011;62579;47.288;18.646;2023-02-18T13:35:57;1.37;;;1.33;;
74217;SDS011;62579;47.288;18.646;2023-02-18T13:38:47;0.95;;;0.93;;
74217;SDS011;62579;47.288;18.646;2023-02-18T13:41:17;2.10;;;1.63;;
74217;SDS011;62579;47.288;18.646;2023-02-18T13:43:43;0.97;;;0.93;;
74217;SDS011;62579;47.288;18.646;2023-02-18T13:46:10;1.47;;;1.37;;
74217;SDS011;62579;47.288;18.646;2023-02-18T13:49:22;0.97;;;0.93;;
74217;SDS011;62579;47.288;18.646;2023-02-18T13:51:41;2.20;;;1.37;;
74217;SDS011;62579;47.288;18.646;2023-02-18T13:56:42;4.17;;;2.17;;
74217;SDS011;62579;47.288;18.646;2023-02-18T14:01:47;1.08;;;0.98;;
74217;SDS011;62579;47.288;18.646;2023-02-18T14:23:04;0.70;;;0.70;;
74217;SDS011;62579;47.288;18.646;2023-02-18T14:25:40;1.53;;;1.43;;
74217;SDS011;62579;47.288;18.646;2023-02-18T14:28:34;0.57;;;0.57;;
74217;SDS011;62579;47.288;18.646;2023-02-18T14:34:29;0.37;;;0.37;;
74217;SDS011;62579;47.288;18.646;2023-02-18T14:37:16;1.50;;;1.43;;
74217;SDS011;62579;47.288;18.646;2023-02-18T14:45:31;1.05;;;1.05;;
74217;SDS011;62579;47.288;18.646;2023-02-18T14:50:45;1.60;;;1.50;;
74217;SDS011;62579;47.288;18.646;2023-02-18T14:53:13;0.60;;;0.60;;
74217;SDS011;62579;47.288;18.646;2023-02-18T14:55:49;4.40;;;2.60;;
74217;SDS011;62579;47.288;18.646;2023-02-18T15:01:06;3.47;;;1.80;;
74217;SDS011;62579;47.288;18.646;2023-02-18T15:03:40;4.33;;;1.83;;
74217;SDS011;62579;47.288;18.646;2023-02-18T15:06:20;2.13;;;1.27;;
74217;SDS011;62579;47.288;18.646;2023-02-18T15:08:52;1.23;;;1.23;;
74217;SDS011;62579;47.288;18.646;2023-02-18T15:11:17;1.60;;;1.50;;
74217;SDS011;62579;47.288;18.646;2023-02-18T15:13:46;1.00;;;1.00;;
74217;SDS011;62579;47.288;18.646;2023-02-18T15:16:19;1.53;;;1.43;;
74217;SDS011;62579;47.288;18.646;2023-02-18T15:18:58;3.93;;;3.47;;
74217;SDS011;62579;47.288;18.646;2023-02-18T15:21:28;3.47;;;1.33;;
74217;SDS011;62579;47.288;18.646;2023-02-18T15:26:47;2.83;;;2.50;;
74217;SDS011;62579;47.288;18.646;2023-02-18T15:29:23;0.77;;;0.77;;
74217;SDS011;62579;47.288;18.646;2023-02-18T15:34:41;1.10;;;1.10;;
74217;SDS011;62579;47.288;18.646;2023-02-18T15:37:09;1.40;;;1.30;;
74217;SDS011;62579;47.288;18.646;2023-02-18T15:39:39;1.90;;;0.83;;
74217;SDS011;62579;47.288;18.646;2023-02-18T15:44:46;1.47;;;1.37;;
74217;SDS011;62579;47.288;18.646;2023-02-18T15:47:14;0.87;;;0.87;;
74217;SDS011;62579;47.288;18.646;2023-02-18T15:49:45;5.78;;;2.33;;
74217;SDS011;62579;47.288;18.646;2023-02-18T15:52:13;0.50;;;0.50;;
74217;SDS011;62579;47.288;18.646;2023-02-18T15:54:39;0.40;;;0.40;;
74217;SDS011;62579;47.288;18.646;2023-02-18T15:57:06;1.33;;;1.02;;
74217;SDS011;62579;47.288;18.646;2023-02-18T15:59:42;2.30;;;1.43;;
74217;SDS011;62579;47.288;18.646;2023-02-18T16:02:15;1.07;;;0.80;;
74217;SDS011;62579;47.288;18.646;2023-02-18T16:04:45;2.30;;;2.07;;
74217;SDS011;62579;47.288;18.646;2023-02-18T16:07:22;5.10;;;1.70;;
74217;SDS011;62579;47.288;18.646;2023-02-18T16:09:48;1.47;;;1.37;;
74217;SDS011;62579;47.288;18.646;2023-02-18T16:12:32;1.50;;;1.20;;
74217;SDS011;62579;47.288;18.646;2023-02-18T16:17:27;0.90;;;0.87;;
74217;SDS011;62579;47.288;18.646;2023-02-18T16:19:54;5.00;;;1.98;;
74217;SDS011;62579;47.288;18.646;2023-02-18T16:27:34;0.60;;;0.60;;
74217;SDS011;62579;47.288;18.646;2023-02-18T16:30:06;1.43;;;1.23;;
74217;SDS011;62579;47.288;18.646;2023-02-18T16:32:41;2.57;;;2.27;;
74217;SDS011;62579;47.288;18.646;2023-02-18T16:35:07;0.37;;;0.37;;
74217;SDS011;62579;47.288;18.646;2023-02-18T16:37:32;1.93;;;1.70;;
74217;SDS011;62579;47.288;18.646;2023-02-18T16:42:39;2.13;;;2.03;;
74217;SDS011;62579;47.288;18.646;2023-02-18T16:45:04;11.00;;;3.40;;
74217;SDS011;62579;47.288;18.646;2023-02-18T16:47:30;1.60;;;1.37;;
74217;SDS011;62579;47.288;18.646;2023-02-18T16:49:59;1.97;;;1.77;;
74217;SDS011;62579;47.288;18.646;2023-02-18T16:52:25;1.63;;;1.13;;
74217;SDS011;62579;47.288;18.646;2023-02-18T16:54:50;2.00;;;1.70;;
74217;SDS011;62579;47.288;18.646;2023-02-18T16:57:18;1.55;;;1.52;;
74217;SDS011;62579;47.288;18.646;2023-02-18T16:59:43;2.67;;;2.17;;
74217;SDS011;62579;47.288;18.646;2023-02-18T17:02:13;0.67;;;0.67;;
74217;SDS011;62579;47.288;18.646;2023-02-18T17:04:42;0.77;;;0.77;;
74217;SDS011;62579;47.288;18.646;2023-02-18T17:07:08;3.37;;;1.17;;
74217;SDS011;62579;47.288;18.646;2023-02-18T17:09:34;1.57;;;1.53;;
74217;SDS011;62579;47.288;18.646;2023-02-18T17:12:00;3.10;;;1.67;;
74217;SDS011;62579;47.288;18.646;2023-02-18T17:14:27;1.20;;;1.12;;
74217;SDS011;62579;47.288;18.646;2023-02-18T17:16:53;4.83;;;1.67;;
74217;SDS011;62579;47.288;18.646;2023-02-18T17:19:19;1.97;;;1.87;;
74217;SDS011;62579;47.288;18.646;2023-02-18T17:21:45;0.93;;;0.93;;
74217;SDS011;62579;47.288;18.646;2023-02-18T17:24:11;0.80;;;0.80;;
74217;SDS011;62579;47.288;18.646;2023-02-18T17:26:37;1.23;;;1.23;;
74217;SDS011;62579;47.288;18.646;2023-02-18T17:29:03;0.60;;;0.60;;
74217;SDS011;62579;47.288;18.646;2023-02-18T17:31:30;1.90;;;1.80;;
74217;SDS011;62579;47.288;18.646;2023-02-18T17:34:00;1.50;;;1.40;;
74217;SDS011;62579;47.288;18.646;2023-02-18T17:36:32;0.90;;;0.90;;
74217;SDS011;62579;47.288;18.646;2023-02-18T17:38:58;0.77;;;0.77;;
74217;SDS011;62579;47.288;18.646;2023-02-18T17:41:24;2.83;;;1.80;;
74217;SDS011;62579;47.288;18.646;2023-02-18T17:43:49;1.60;;;1.50;;